Time;durP1;ratioP1;P1;durP2;ratioP2;P2;SDS_P1;SDS_P2;PMS_P1;PMS_P2;Temp;Humidity;BMP_temperature;BMP_pressure;BME280_temperature;BME280_humidity;BME280_pressure;Samples;Min_cycle;Max_cycle;Signal;HPM_P1;HPM_P2
2024/01/02 00:02:09;;;;;;;10.70;3.65;;;6.00;99.90;;;;;;5090336;28;20036;-79
2024/01/02 00:04:35;;;;;;;11.05;3.88;;;6.00;99.90;;;;;;5090166;28;20031;-79
2024/01/02 00:07:00;;;;;;;18.30;4.18;;;6.20;99.90;;;;;;5090350;28;20116;-79
2024/01/02 00:09:26;;;;;;;13.88;3.75;;;6.00;99.90;;;;;;5090181;28;20047;-78
2024/01/02 00:11:52;;;;;;;9.98;4.00;;;6.10;99.90;;;;;;5090150;28;20503;-79
2024/01/02 00:14:17;;;;;;;10.05;3.95;;;6.20;99.90;;;;;;5089353;28;20116;-79
2024/01/02 00:16:43;;;;;;;11.10;3.67;;;6.20;99.90;;;;;;5072932;28;20521;-78
2024/01/02 00:19:08;;;;;;;11.32;3.40;;;6.00;99.90;;;;;;5091085;28;20028;-79
2024/01/02 00:21:34;;;;;;;12.10;3.72;;;6.10;99.90;;;;;;5091327;28;20411;-79
2024/01/02 00:24:01;;;;;;;14.02;3.30;;;6.10;99.90;;;;;;5090036;28;20043;-79
2024/01/02 00:26:27;;;;;;;11.60;3.72;;;6.30;99.90;;;;;;5090072;28;20431;-78
2024/01/02 00:28:53;;;;;;;14.15;6.03;;;6.10;99.90;;;;;;5089598;28;20035;-79
2024/01/02 00:31:19;;;;;;;12.75;2.92;;;6.10;99.90;;;;;;5089905;28;20099;-79
2024/01/02 00:33:45;;;;;;;9.77;2.70;;;6.30;99.90;;;;;;5080259;28;20045;-78
2024/01/02 00:36:11;;;;;;;9.18;3.25;;;6.30;99.90;;;;;;5089555;28;20415;-79
2024/01/02 00:38:38;;;;;;;11.75;3.05;;;6.20;99.90;;;;;;5089495;28;20115;-79
2024/01/02 00:41:04;;;;;;;10.60;2.75;;;6.30;99.90;;;;;;5091123;28;20065;-79
2024/01/02 00:43:30;;;;;;;10.80;3.13;;;6.30;99.90;;;;;;5089758;28;20115;-80
2024/01/02 00:45:56;;;;;;;9.68;3.15;;;6.40;99.90;;;;;;5089790;28;20123;-78
2024/01/02 00:48:22;;;;;;;6.65;2.47;;;6.40;99.90;;;;;;5089466;28;20040;-79
2024/01/02 00:50:47;;;;;;;8.60;2.97;;;6.30;99.90;;;;;;5089480;28;20127;-79
2024/01/02 00:53:13;;;;;;;7.80;2.30;;;6.40;99.90;;;;;;5089708;28;20036;-79
2024/01/02 00:55:39;;;;;;;7.18;3.30;;;6.40;99.90;;;;;;5072707;28;20503;-79
2024/01/02 00:58:04;;;;;;;8.07;2.50;;;6.20;99.90;;;;;;5072685;28;20040;-78
2024/01/02 01:00:30;;;;;;;10.75;2.58;;;6.30;99.90;;;;;;5089449;28;20048;-78
2024/01/02 01:02:55;;;;;;;8.15;3.55;;;6.30;99.90;;;;;;5089650;28;20506;-78
2024/01/02 01:05:21;;;;;;;6.68;2.53;;;6.40;99.90;;;;;;5089197;28;20080;-79
2024/01/02 01:07:47;;;;;;;5.70;2.25;;;6.30;99.90;;;;;;5089049;28;20044;-79
2024/01/02 01:10:13;;;;;;;12.85;2.75;;;6.40;99.90;;;;;;5090138;28;20051;-79
2024/01/02 01:12:39;;;;;;;6.53;2.30;;;6.30;99.90;;;;;;5089425;28;20047;-79
2024/01/02 01:15:05;;;;;;;10.80;2.08;;;6.30;99.90;;;;;;5089520;28;20411;-79
2024/01/02 01:17:30;;;;;;;7.43;2.17;;;6.40;99.90;;;;;;5090076;28;20166;-79
2024/01/02 01:19:56;;;;;;;6.10;1.85;;;6.30;99.90;;;;;;5089324;28;20040;-79
2024/01/02 01:22:22;;;;;;;5.35;2.28;;;6.40;99.90;;;;;;5089234;28;20040;-79
2024/01/02 01:24:48;;;;;;;12.85;2.80;;;6.30;99.90;;;;;;5090221;28;20119;-79
2024/01/02 01:27:14;;;;;;;7.63;2.88;;;6.50;99.90;;;;;;5092748;28;20074;-79
2024/01/02 01:29:39;;;;;;;5.07;2.13;;;6.40;99.90;;;;;;5093590;28;20360;-79
2024/01/02 01:32:05;;;;;;;4.85;1.95;;;6.50;99.90;;;;;;5093199;28;20043;-79
2024/01/02 01:34:31;;;;;;;6.22;2.17;;;6.30;99.90;;;;;;5092751;28;20054;-79
2024/01/02 01:36:57;;;;;;;5.57;1.67;;;6.30;99.90;;;;;;5092621;28;20044;-79
2024/01/02 01:39:22;;;;;;;6.13;1.60;;;6.30;99.90;;;;;;5092766;28;20066;-80
2024/01/02 01:41:48;;;;;;;4.53;2.75;;;6.30;99.90;;;;;;5092773;28;20032;-79
2024/01/02 01:44:13;;;;;;;6.68;2.10;;;6.40;99.90;;;;;;5092635;28;20032;-78
2024/01/02 01:46:40;;;;;;;6.13;1.65;;;6.40;99.90;;;;;;5092646;28;20028;-78
2024/01/02 01:49:08;;;;;;;6.13;1.70;;;6.50;99.90;;;;;;5091921;28;20065;-78
2024/01/02 01:51:37;;;;;;;7.43;2.35;;;6.30;99.90;;;;;;5092540;28;20040;-78
2024/01/02 01:54:04;;;;;;;7.15;2.28;;;6.50;99.90;;;;;;5075292;28;20036;-78
2024/01/02 01:56:31;;;;;;;9.73;2.00;;;6.40;99.90;;;;;;5091401;28;20048;-79
2024/01/02 01:58:57;;;;;;;8.52;1.77;;;6.50;99.90;;;;;;5074742;28;20054;-79
2024/01/02 02:01:23;;;;;;;6.38;2.10;;;6.30;99.90;;;;;;5075610;28;20039;-79
2024/01/02 02:03:50;;;;;;;6.47;1.85;;;6.40;99.90;;;;;;5092086;28;20063;-78
2024/01/02 02:06:16;;;;;;;6.25;2.30;;;6.30;99.90;;;;;;5091884;28;20036;-78
2024/01/02 02:08:42;;;;;;;9.98;3.17;;;6.40;99.90;;;;;;5075203;28;20036;-79
2024/01/02 02:11:10;;;;;;;5.68;1.88;;;6.40;99.90;;;;;;5092186;28;20075;-79
2024/01/02 02:13:36;;;;;;;10.82;3.25;;;6.40;99.90;;;;;;5092174;28;20043;-78
2024/01/02 02:16:02;;;;;;;8.23;3.05;;;6.60;99.90;;;;;;5091860;28;20044;-78
2024/01/02 02:18:27;;;;;;;9.10;3.47;;;6.40;99.90;;;;;;5075035;28;20055;-78
2024/01/02 02:20:55;;;;;;;9.23;3.25;;;6.50;99.90;;;;;;5075049;28;20097;-79
2024/01/02 02:23:21;;;;;;;11.02;3.00;;;6.60;99.90;;;;;;5091965;28;20082;-78
2024/01/02 02:25:46;;;;;;;14.50;4.43;;;6.40;99.90;;;;;;5091693;28;20040;-78
2024/01/02 02:28:12;;;;;;;8.65;3.28;;;6.60;99.90;;;;;;5091582;28;20082;-78
2024/01/02 02:30:38;;;;;;;9.63;3.67;;;6.50;99.90;;;;;;5092071;28;20039;-78
2024/01/02 02:33:04;;;;;;;9.18;3.05;;;6.60;99.90;;;;;;5091811;28;20456;-78
2024/01/02 02:35:30;;;;;;;15.07;4.32;;;6.50;99.90;;;;;;5074592;28;20048;-79
2024/01/02 02:37:55;;;;;;;15.57;4.88;;;6.70;99.90;;;;;;5090649;28;20040;-78
2024/01/02 02:40:21;;;;;;;12.68;4.03;;;6.70;99.90;;;;;;5091594;28;20539;-78
2024/01/02 02:42:47;;;;;;;10.35;4.57;;;6.60;99.90;;;;;;5091086;28;20118;-78
2024/01/02 02:45:13;;;;;;;14.80;5.10;;;6.60;99.90;;;;;;5091535;28;20038;-78
2024/01/02 02:47:38;;;;;;;12.60;4.13;;;6.80;99.90;;;;;;5091023;28;20044;-78
2024/01/02 02:50:07;;;;;;;10.60;4.80;;;6.50;99.90;;;;;;5091315;28;20039;-78
2024/01/02 02:52:33;;;;;;;17.63;5.70;;;6.60;99.90;;;;;;5091223;28;20074;-78
2024/01/02 02:54:59;;;;;;;13.95;4.75;;;6.50;99.90;;;;;;5112789;22;20580;-73
2024/01/02 02:57:25;;;;;;;10.52;4.82;;;6.70;99.90;;;;;;5036942;28;20045;-73
2024/01/02 02:59:51;;;;;;;15.68;5.10;;;6.50;99.90;;;;;;5053043;28;20047;-73
2024/01/02 03:02:17;;;;;;;10.35;4.80;;;6.70;99.90;;;;;;5053390;28;20091;-73
2024/01/02 03:04:44;;;;;;;10.73;4.72;;;6.70;99.90;;;;;;5036972;28;20558;-73
2024/01/02 03:07:10;;;;;;;12.10;5.53;;;6.70;99.90;;;;;;5053358;28;20063;-73
2024/01/02 03:09:36;;;;;;;9.88;4.95;;;6.60;99.90;;;;;;5053110;28;20106;-73
2024/01/02 03:12:02;;;;;;;13.35;5.35;;;6.80;99.90;;;;;;5053717;28;20036;-73
2024/01/02 03:14:27;;;;;;;16.58;5.63;;;6.70;99.90;;;;;;5037860;28;20557;-73
2024/01/02 03:16:53;;;;;;;14.43;5.22;;;6.80;99.90;;;;;;5054280;28;20051;-73
2024/01/02 03:19:19;;;;;;;8.90;4.40;;;6.80;99.90;;;;;;5054418;28;20127;-73
2024/01/02 03:21:45;;;;;;;15.52;5.22;;;6.60;99.90;;;;;;5054675;28;20040;-73
2024/01/02 03:24:10;;;;;;;12.23;5.00;;;6.60;99.90;;;;;;5054504;28;20037;-73
2024/01/02 03:26:36;;;;;;;17.05;5.40;;;6.80;99.90;;;;;;5053807;28;20037;-73
2024/01/02 03:29:02;;;;;;;12.82;5.20;;;6.80;99.90;;;;;;5072228;28;20033;-73
2024/01/02 03:31:27;;;;;;;13.80;5.78;;;6.90;99.90;;;;;;5054261;28;20047;-73
2024/01/02 03:33:53;;;;;;;12.40;4.80;;;6.90;99.90;;;;;;5054217;28;20036;-73
2024/01/02 03:36:22;;;;;;;15.30;5.15;;;6.80;99.90;;;;;;5054071;28;20055;-73
2024/01/02 03:38:49;;;;;;;8.40;5.53;;;6.90;99.90;;;;;;5054185;28;20478;-73
2024/01/02 03:41:16;;;;;;;13.90;4.80;;;6.90;99.90;;;;;;5054029;28;20527;-73
2024/01/02 03:43:42;;;;;;;13.55;4.50;;;6.80;99.90;;;;;;5037472;28;20044;-73
2024/01/02 03:46:08;;;;;;;7.60;3.67;;;6.90;99.90;;;;;;5053818;28;20037;-73
2024/01/02 03:48:34;;;;;;;12.18;4.03;;;6.90;99.90;;;;;;5053681;28;20032;-73
2024/01/02 03:51:03;;;;;;;7.70;4.10;;;6.80;99.90;;;;;;5054093;28;20118;-73
2024/01/02 03:53:29;;;;;;;8.70;3.92;;;6.70;99.90;;;;;;5053790;28;20041;-73
2024/01/02 03:55:55;;;;;;;8.45;4.03;;;6.80;99.90;;;;;;5071636;28;20127;-73
2024/01/02 03:58:21;;;;;;;9.77;3.70;;;6.90;99.90;;;;;;5071569;28;20155;-73
2024/01/02 04:00:47;;;;;;;6.65;3.45;;;6.80;99.90;;;;;;5053763;28;20578;-73
2024/01/02 04:03:13;;;;;;;8.98;3.17;;;7.00;99.90;;;;;;5053994;28;20042;-73
2024/01/02 04:05:38;;;;;;;15.70;5.45;;;6.90;99.90;;;;;;5053778;28;20403;-73
2024/01/02 04:08:04;;;;;;;8.40;4.03;;;6.80;99.90;;;;;;5053657;28;20051;-73
2024/01/02 04:10:30;;;;;;;13.93;4.30;;;6.80;99.90;;;;;;5053628;28;20091;-73
2024/01/02 04:12:55;;;;;;;9.68;4.07;;;7.00;99.90;;;;;;5070557;28;20043;-73
2024/01/02 04:15:21;;;;;;;7.72;3.47;;;7.00;99.90;;;;;;5036931;28;20043;-73
2024/01/02 04:17:47;;;;;;;8.60;3.50;;;6.90;99.90;;;;;;5053302;28;20072;-73
2024/01/02 04:20:12;;;;;;;9.80;4.15;;;6.90;99.90;;;;;;5053506;28;20466;-73
2024/01/02 04:22:39;;;;;;;7.45;3.28;;;6.80;99.90;;;;;;5053451;28;20043;-73
2024/01/02 04:25:06;;;;;;;9.85;4.32;;;7.10;99.90;;;;;;5053561;28;20045;-73
2024/01/02 04:27:32;;;;;;;9.50;4.40;;;6.90;99.90;;;;;;5053118;28;20099;-73
2024/01/02 04:29:57;;;;;;;9.15;3.97;;;6.90;99.90;;;;;;5053441;28;20452;-73
2024/01/02 04:32:23;;;;;;;12.43;5.50;;;7.00;99.90;;;;;;5053536;28;20040;-73
2024/01/02 04:34:49;;;;;;;9.00;4.07;;;7.00;99.90;;;;;;5053235;28;20512;-73
2024/01/02 04:37:14;;;;;;;10.45;3.92;;;7.10;99.90;;;;;;5053207;28;20044;-73
2024/01/02 04:39:40;;;;;;;8.88;3.45;;;6.90;99.90;;;;;;5053192;28;20032;-73
2024/01/02 04:42:05;;;;;;;6.55;3.72;;;6.90;99.90;;;;;;5037031;28;20071;-73
2024/01/02 04:44:31;;;;;;;9.43;3.95;;;6.90;99.90;;;;;;5053243;28;20120;-73
2024/01/02 04:46:57;;;;;;;7.85;3.72;;;6.90;99.90;;;;;;5086856;28;20504;-73
2024/01/02 04:49:23;;;;;;;9.02;3.60;;;6.90;99.90;;;;;;5053270;28;20040;-73
2024/01/02 04:51:48;;;;;;;10.90;3.15;;;6.90;99.90;;;;;;5071176;28;20037;-72
2024/01/02 04:54:14;;;;;;;8.15;3.42;;;6.90;99.90;;;;;;5086644;28;20037;-73
2024/01/02 04:56:40;;;;;;;6.75;3.75;;;7.10;99.90;;;;;;5070858;28;20044;-72
2024/01/02 04:59:06;;;;;;;8.05;3.15;;;7.10;99.90;;;;;;5069982;28;20036;-72
2024/01/02 05:01:32;;;;;;;7.97;3.03;;;6.90;99.90;;;;;;5073655;28;20054;-73
2024/01/02 05:03:57;;;;;;;6.47;2.90;;;7.10;99.90;;;;;;5056928;28;20033;-72
2024/01/02 05:06:23;;;;;;;6.53;2.65;;;6.90;99.90;;;;;;5090298;28;20064;-72
2024/01/02 05:08:52;;;;;;;5.57;2.50;;;7.00;99.90;;;;;;5040329;28;20468;-73
2024/01/02 05:11:17;;;;;;;6.95;2.83;;;7.00;99.90;;;;;;5057086;28;20040;-72
2024/01/02 05:13:43;;;;;;;8.13;2.60;;;7.00;99.90;;;;;;5090391;28;20048;-72
2024/01/02 05:16:09;;;;;;;9.27;3.88;;;7.00;99.90;;;;;;5056912;28;20110;-72
2024/01/02 05:18:35;;;;;;;6.53;2.50;;;6.80;99.90;;;;;;5090110;28;20052;-73
2024/01/02 05:21:00;;;;;;;8.90;2.58;;;6.90;99.90;;;;;;5090172;28;20041;-72
2024/01/02 05:23:26;;;;;;;8.35;3.00;;;6.90;99.90;;;;;;5090114;28;20127;-72
2024/01/02 05:25:52;;;;;;;7.32;2.30;;;7.00;99.90;;;;;;5073172;28;20123;-72
2024/01/02 05:28:17;;;;;;;8.05;2.15;;;7.10;99.90;;;;;;5056341;28;20064;-72
2024/01/02 05:30:43;;;;;;;5.55;2.42;;;6.90;99.90;;;;;;5056567;28;20089;-73
2024/01/02 05:33:09;;;;;;;5.20;1.98;;;7.00;99.90;;;;;;5056364;28;20458;-72
2024/01/02 05:35:34;;;;;;;5.28;2.55;;;6.90;99.90;;;;;;5090217;28;20403;-72
2024/01/02 05:38:00;;;;;;;3.90;2.42;;;6.80;99.90;;;;;;5056146;28;20496;-72
2024/01/02 05:40:26;;;;;;;8.30;2.17;;;6.80;99.90;;;;;;5056252;28;20036;-73
2024/01/02 05:42:51;;;;;;;5.28;2.63;;;7.10;99.90;;;;;;5056358;28;20041;-73
2024/01/02 05:45:17;;;;;;;5.13;2.33;;;7.10;99.90;;;;;;5072889;28;20132;-73
2024/01/02 05:47:44;;;;;;;6.22;2.47;;;7.00;99.90;;;;;;5089445;28;20040;-72
2024/01/02 05:50:10;;;;;;;4.00;1.70;;;6.90;99.90;;;;;;5039822;28;20051;-72
2024/01/02 05:52:35;;;;;;;5.75;2.20;;;7.00;99.90;;;;;;5056266;28;20044;-73
2024/01/02 05:55:01;;;;;;;4.07;1.55;;;7.00;99.90;;;;;;5089631;28;20048;-73
2024/01/02 05:57:27;;;;;;;5.25;2.33;;;6.90;99.90;;;;;;5089502;28;20131;-72
2024/01/02 05:59:52;;;;;;;4.10;1.67;;;7.00;99.90;;;;;;5089745;28;20039;-72
2024/01/02 06:02:18;;;;;;;3.50;1.73;;;6.90;99.90;;;;;;5089500;28;20512;-72
2024/01/02 06:04:44;;;;;;;6.07;2.03;;;7.10;99.90;;;;;;5089273;28;20039;-72
2024/01/02 06:07:09;;;;;;;3.78;1.90;;;7.00;99.90;;;;;;5055710;28;20032;-72
2024/01/02 06:09:35;;;;;;;5.07;1.55;;;6.90;99.90;;;;;;5089451;28;20040;-73
2024/01/02 06:12:00;;;;;;;3.83;1.60;;;6.90;99.90;;;;;;5071162;28;20035;-73
2024/01/02 06:14:26;;;;;;;4.63;2.33;;;6.80;99.90;;;;;;5055797;28;20045;-73
2024/01/02 06:16:52;;;;;;;1.58;1.20;;;6.90;99.90;;;;;;5055488;28;20064;-73
2024/01/02 06:19:18;;;;;;;2.75;1.20;;;7.10;99.90;;;;;;5055542;28;20068;-75
2024/01/02 06:21:44;;;;;;;3.20;1.67;;;7.00;99.90;;;;;;5055473;28;20522;-73
2024/01/02 06:24:10;;;;;;;1.75;1.52;;;6.90;99.90;;;;;;5073694;28;20037;-73
2024/01/02 06:26:36;;;;;;;2.55;1.30;;;6.90;99.90;;;;;;5073372;28;20043;-72
2024/01/02 06:29:01;;;;;;;2.20;1.35;;;6.90;99.90;;;;;;5089106;28;20074;-72
2024/01/02 06:31:27;;;;;;;2.78;1.73;;;7.10;99.90;;;;;;5055073;28;20036;-73
2024/01/02 06:33:53;;;;;;;2.40;1.50;;;6.90;99.90;;;;;;5038818;28;20070;-73
2024/01/02 06:36:18;;;;;;;1.15;0.90;;;7.10;99.90;;;;;;5038580;28;20097;-72
2024/01/02 06:38:44;;;;;;;2.08;1.23;;;7.10;99.90;;;;;;5055126;28;20051;-73
2024/01/02 06:41:10;;;;;;;2.88;1.10;;;6.90;99.90;;;;;;5055149;28;20032;-73
2024/01/02 06:43:35;;;;;;;2.25;1.08;;;7.10;99.90;;;;;;5038683;28;20145;-72
2024/01/02 06:46:02;;;;;;;1.85;1.10;;;7.00;99.90;;;;;;5054508;28;20028;-73
2024/01/02 06:48:28;;;;;;;2.50;1.02;;;7.00;99.90;;;;;;5054716;28;20045;-72
2024/01/02 06:50:54;;;;;;;1.20;0.70;;;6.90;99.90;;;;;;5055248;28;20043;-72
2024/01/02 06:53:20;;;;;;;0.93;0.70;;;6.90;99.90;;;;;;5055163;28;20040;-73
2024/01/02 06:55:45;;;;;;;1.77;0.80;;;7.20;99.90;;;;;;5055053;28;20048;-73
2024/01/02 06:58:11;;;;;;;1.40;1.02;;;7.10;99.90;;;;;;5054326;28;20082;-72
2024/01/02 07:00:37;;;;;;;2.78;1.23;;;7.10;99.90;;;;;;5072633;28;20032;-72
2024/01/02 07:03:03;;;;;;;0.98;0.65;;;7.10;99.90;;;;;;5054760;28;20044;-72
2024/01/02 07:05:29;;;;;;;2.15;1.10;;;6.90;99.90;;;;;;5072724;28;20043;-72
2024/01/02 07:07:55;;;;;;;2.08;1.05;;;7.00;99.90;;;;;;5037835;28;20045;-72
2024/01/02 07:10:20;;;;;;;1.40;0.90;;;7.20;99.90;;;;;;5054691;28;20500;-72
2024/01/02 07:12:47;;;;;;;1.10;0.80;;;7.00;99.90;;;;;;5054712;28;20043;-72
2024/01/02 07:15:12;;;;;;;1.08;0.65;;;7.10;99.90;;;;;;5054682;28;20081;-72
2024/01/02 07:17:40;;;;;;;3.10;0.80;;;7.10;99.90;;;;;;5054316;28;20127;-72
2024/01/02 07:20:06;;;;;;;1.20;0.90;;;7.10;99.90;;;;;;5054413;28;20036;-72
2024/01/02 07:22:32;;;;;;;2.13;0.77;;;7.10;99.90;;;;;;5054096;28;20129;-72
2024/01/02 07:24:57;;;;;;;9.90;2.72;;;7.20;99.90;;;;;;5054690;28;20110;-72
2024/01/02 07:27:23;;;;;;;1.45;0.80;;;7.00;99.90;;;;;;5054146;28;20035;-72
2024/01/02 07:29:49;;;;;;;1.27;0.82;;;7.20;99.90;;;;;;5054345;28;20420;-72
2024/01/02 07:32:15;;;;;;;0.93;0.70;;;7.20;99.90;;;;;;5054318;28;20043;-72
2024/01/02 07:34:40;;;;;;;2.40;0.80;;;7.30;99.90;;;;;;5054106;28;20048;-72
2024/01/02 07:37:06;;;;;;;1.40;0.90;;;7.20;99.90;;;;;;5053868;28;20047;-72
2024/01/02 07:39:32;;;;;;;2.05;1.30;;;7.00;99.90;;;;;;5054222;28;20037;-72
2024/01/02 07:41:58;;;;;;;2.25;1.23;;;7.20;99.90;;;;;;5054391;28;20462;-72
2024/01/02 07:44:23;;;;;;;2.22;1.50;;;7.10;99.90;;;;;;5054098;28;20037;-72
2024/01/02 07:46:49;;;;;;;1.95;1.45;;;7.20;99.90;;;;;;5053838;28;20075;-72
2024/01/02 07:49:16;;;;;;;2.30;1.42;;;7.30;99.90;;;;;;5087237;28;20567;-72
2024/01/02 07:51:42;;;;;;;3.10;1.70;;;7.20;99.90;;;;;;5054050;28;20048;-72
2024/01/02 07:54:08;;;;;;;2.78;2.00;;;7.20;99.90;;;;;;5087502;28;20051;-72
2024/01/02 07:56:33;;;;;;;3.45;2.45;;;7.20;99.90;;;;;;5053668;28;20040;-72
2024/01/02 07:58:59;;;;;;;2.13;1.80;;;7.50;99.90;;;;;;5053888;28;20416;-72
2024/01/02 08:01:25;;;;;;;4.20;2.15;;;7.20;99.90;;;;;;5087383;28;20115;-72
2024/01/02 08:03:50;;;;;;;2.17;1.60;;;7.20;99.90;;;;;;5054091;28;20496;-72
2024/01/02 08:06:16;;;;;;;2.45;1.70;;;7.30;99.90;;;;;;5087170;28;20488;-72
2024/01/02 08:08:41;;;;;;;3.17;1.80;;;7.30;99.90;;;;;;5053883;28;20040;-72
2024/01/02 08:11:08;;;;;;;2.20;1.67;;;7.40;99.90;;;;;;5053780;28;20123;-73
2024/01/02 08:13:34;;;;;;;2.95;2.08;;;7.50;99.90;;;;;;5053375;28;20082;-72
2024/01/02 08:16:00;;;;;;;3.90;2.92;;;7.50;99.90;;;;;;5086845;28;20049;-72
2024/01/02 08:18:27;;;;;;;3.58;2.80;;;7.50;99.90;;;;;;5086827;28;20048;-72
2024/01/02 08:20:53;;;;;;;5.07;3.80;;;7.60;99.90;;;;;;5053425;28;20496;-72
2024/01/02 08:23:18;;;;;;;5.60;4.30;;;7.40;99.90;;;;;;5086911;28;20048;-72
2024/01/02 08:25:44;;;;;;;3.97;3.10;;;7.30;99.90;;;;;;5053648;28;20091;-72
2024/01/02 08:28:09;;;;;;;3.63;2.58;;;7.40;99.90;;;;;;5086959;28;20040;-72
2024/01/02 08:30:35;;;;;;;3.63;2.50;;;7.50;99.90;;;;;;5087277;28;20137;-72
2024/01/02 08:33:00;;;;;;;3.15;2.13;;;7.50;99.90;;;;;;5053396;28;20090;-72
2024/01/02 08:35:26;;;;;;;3.05;2.20;;;7.50;99.90;;;;;;5056053;28;20040;-72
2024/01/02 08:37:52;;;;;;;2.33;1.77;;;7.70;99.90;;;;;;5057484;28;20052;-72
2024/01/02 08:40:17;;;;;;;4.38;2.38;;;7.80;99.90;;;;;;5057372;28;20032;-72
2024/01/02 08:42:43;;;;;;;2.58;2.20;;;7.70;99.90;;;;;;5057637;28;20093;-72
2024/01/02 08:45:12;;;;;;;2.95;1.98;;;7.90;99.90;;;;;;5057168;28;20507;-72
2024/01/02 08:47:40;;;;;;;5.13;2.28;;;7.80;99.90;;;;;;5080313;28;20089;-72
2024/01/02 08:50:07;;;;;;;3.03;2.05;;;7.90;99.90;;;;;;5061231;28;20037;-72
2024/01/02 08:52:35;;;;;;;2.95;1.80;;;7.70;99.90;;;;;;5087325;28;20032;-72
2024/01/02 08:55:01;;;;;;;3.78;1.92;;;7.70;99.90;;;;;;5067980;28;20037;-77
2024/01/02 08:57:41;;;;;;;4.38;2.83;;;7.80;99.90;;;;;;5088716;27;20466;-73
2024/01/02 09:00:07;;;;;;;4.75;2.35;;;7.90;99.90;;;;;;5088894;28;20652;-73
2024/01/02 09:02:34;;;;;;;6.40;2.90;;;8.20;99.90;;;;;;5088126;28;20071;-73
2024/01/02 09:04:59;;;;;;;5.35;2.85;;;8.10;99.90;;;;;;5089197;28;20028;-73
2024/01/02 09:07:25;;;;;;;7.63;3.28;;;8.30;99.90;;;;;;5068865;28;20051;-73
2024/01/02 09:09:50;;;;;;;9.15;3.15;;;8.20;99.90;;;;;;5068455;28;20790;-72
2024/01/02 09:12:16;;;;;;;8.70;3.40;;;8.40;99.90;;;;;;5067374;28;20045;-73
2024/01/02 09:14:42;;;;;;;6.70;3.33;;;8.40;99.90;;;;;;5068203;28;20112;-73
2024/01/02 09:17:08;;;;;;;9.82;3.03;;;8.40;99.90;;;;;;5064168;28;20033;-73
2024/01/02 09:19:33;;;;;;;8.50;3.70;;;8.40;99.90;;;;;;5068008;28;20040;-73
2024/01/02 09:21:59;;;;;;;20.42;4.32;;;8.50;99.90;;;;;;5067960;28;20538;-73
2024/01/02 09:24:24;;;;;;;10.45;4.20;;;8.50;99.90;;;;;;5068036;28;20557;-73
2024/01/02 09:26:54;;;;;;;14.45;3.67;;;8.60;99.90;;;;;;5068007;28;20052;-72
2024/01/02 09:29:21;;;;;;;13.27;3.33;;;8.90;99.90;;;;;;5068467;28;20041;-73
2024/01/02 09:31:47;;;;;;;14.85;3.65;;;8.80;99.90;;;;;;5068491;28;20044;-73
2024/01/02 09:34:13;;;;;;;18.77;3.97;;;9.00;99.90;;;;;;5068329;28;20071;-73
2024/01/02 09:36:39;;;;;;;13.55;3.00;;;9.00;99.90;;;;;;5066416;28;20068;-72
2024/01/02 09:39:05;;;;;;;19.77;2.92;;;9.10;99.90;;;;;;5073133;28;20029;-73
2024/01/02 09:41:50;;;;;;;16.38;3.50;;;9.30;99.90;;;;;;5064287;28;20047;-72
2024/01/02 09:44:44;;;;;;;18.33;2.80;;;9.20;99.90;;;;;;5067882;28;20032;-73
2024/01/02 09:47:33;;;;;;;18.95;3.35;;;9.30;99.90;;;;;;5059871;28;20045;-73
2024/01/02 09:50:27;;;;;;;12.63;3.50;;;9.30;99.90;;;;;;5060223;28;20448;-73
2024/01/02 09:53:37;;;;;;;13.00;2.75;;;9.40;99.90;;;;;;5066598;28;20056;-73
2024/01/02 09:56:37;;;;;;;11.70;3.75;;;9.40;99.90;;;;;;5067703;28;20123;-73
2024/01/02 09:59:27;;;;;;;18.95;3.22;;;9.40;99.90;;;;;;5044441;28;20053;-73
2024/01/02 10:02:12;;;;;;;19.40;3.58;;;9.70;99.90;;;;;;5067563;28;20039;-73
2024/01/02 10:04:50;;;;;;;24.33;3.63;;;9.80;99.90;;;;;;5067839;28;20448;-73
2024/01/02 10:07:32;;;;;;;21.02;3.10;;;9.80;99.90;;;;;;5064071;28;20048;-73
2024/01/02 10:10:18;;;;;;;22.15;4.57;;;9.70;99.90;;;;;;5054434;28;20037;-73
2024/01/02 10:12:44;;;;;;;21.63;3.30;;;9.80;99.90;;;;;;5054389;28;20053;-73
2024/01/02 10:15:43;;;;;;;21.65;3.08;;;9.80;99.90;;;;;;5054167;28;20049;-73
2024/01/02 10:18:36;;;;;;;16.27;3.78;;;9.80;99.90;;;;;;5054083;28;20049;-73
2024/01/02 10:21:21;;;;;;;22.90;4.55;;;10.00;99.90;;;;;;5054197;28;20041;-73
2024/01/02 10:23:52;;;;;;;21.25;3.80;;;9.90;99.90;;;;;;5054260;28;20099;-73
2024/01/02 10:26:19;;;;;;;22.92;4.35;;;10.10;99.90;;;;;;5053934;28;20152;-73
2024/01/02 10:28:49;;;;;;;23.23;5.20;;;9.80;99.90;;;;;;5053832;28;20044;-73
2024/01/02 10:31:36;;;;;;;17.80;5.53;;;10.10;99.90;;;;;;5053911;28;20095;-73
2024/01/02 10:34:13;;;;;;;27.00;7.93;;;10.00;99.90;;;;;;5054063;28;20041;-73
2024/01/02 10:36:44;;;;;;;37.90;10.07;;;9.90;99.90;;;;;;5053683;28;20037;-73
2024/01/02 10:39:23;;;;;;;30.40;10.43;;;10.10;99.90;;;;;;5053699;28;20401;-73
2024/01/02 10:41:48;;;;;;;38.47;10.55;;;10.10;99.90;;;;;;5053975;28;20098;-73
2024/01/02 10:44:41;;;;;;;44.25;12.20;;;10.00;99.90;;;;;;5053630;28;20044;-73
2024/01/02 10:47:24;;;;;;;41.47;12.02;;;10.00;99.90;;;;;;5053629;28;20036;-73
2024/01/02 10:49:55;;;;;;;35.42;12.20;;;10.30;99.90;;;;;;5051922;28;20037;-73
2024/01/02 10:52:25;;;;;;;40.60;11.30;;;10.30;99.90;;;;;;5053166;28;20111;-72
2024/01/02 10:55:15;;;;;;;34.10;11.50;;;10.30;99.90;;;;;;5052102;28;20083;-73
2024/01/02 10:57:55;;;;;;;28.42;8.52;;;10.30;99.90;;;;;;5052916;28;20045;-73
2024/01/02 11:00:23;;;;;;;23.05;7.88;;;10.30;99.90;;;;;;5051888;28;20163;-73
2024/01/02 11:02:57;;;;;;;32.28;7.97;;;10.20;99.90;;;;;;5051926;28;20044;-72
2024/01/02 11:05:26;;;;;;;31.98;6.22;;;10.40;99.90;;;;;;5053087;28;20060;-73
2024/01/02 11:08:05;;;;;;;29.98;7.43;;;10.40;99.90;;;;;;5052606;28;20595;-73
2024/01/02 11:10:38;;;;;;;20.35;5.95;;;10.30;99.90;;;;;;5052833;28;20508;-73
2024/01/02 11:13:08;;;;;;;34.53;6.93;;;10.50;99.90;;;;;;5053370;28;20033;-73
2024/01/02 11:15:40;;;;;;;19.58;5.90;;;10.50;99.90;;;;;;5052800;28;20148;-73
2024/01/02 11:18:06;;;;;;;24.00;5.60;;;10.40;99.90;;;;;;5051576;28;20508;-73
2024/01/02 11:20:53;;;;;;;20.73;6.30;;;10.50;99.90;;;;;;5050857;28;20127;-73
2024/01/02 11:23:24;;;;;;;18.73;4.13;;;10.30;99.90;;;;;;5034950;28;20041;-73
2024/01/02 11:25:58;;;;;;;17.05;4.38;;;10.30;99.90;;;;;;5053100;28;20037;-73
2024/01/02 11:28:25;;;;;;;19.75;4.97;;;10.60;99.90;;;;;;5051626;28;20086;-73
2024/01/02 11:30:51;;;;;;;30.17;6.15;;;10.50;99.90;;;;;;5051524;28;20159;-73
2024/01/02 11:33:24;;;;;;;28.85;5.05;;;10.40;99.90;;;;;;5052797;28;20068;-73
2024/01/02 11:36:18;;;;;;;17.73;3.85;;;10.50;99.90;;;;;;5084762;28;20032;-73
2024/01/02 11:39:07;;;;;;;24.48;5.88;;;10.60;99.90;;;;;;5052618;28;20047;-74
2024/01/02 11:41:48;;;;;;;19.65;4.00;;;10.70;99.90;;;;;;5052719;28;20037;-73
2024/01/02 11:44:34;;;;;;;21.02;3.70;;;10.50;99.90;;;;;;5052396;28;20182;-73
2024/01/02 11:47:08;;;;;;;19.60;3.72;;;10.80;99.90;;;;;;5052544;28;20101;-73
2024/01/02 11:49:43;;;;;;;27.48;3.78;;;10.60;99.90;;;;;;5052391;28;20060;-73
2024/01/02 11:52:15;;;;;;;20.95;3.95;;;10.80;99.90;;;;;;5052422;28;20055;-73
2024/01/02 11:55:10;;;;;;;18.98;4.40;;;10.70;99.90;;;;;;5052608;28;20068;-73
2024/01/02 11:57:51;;;;;;;17.90;3.30;;;10.80;99.90;;;;;;5051898;28;20106;-74
2024/01/02 12:00:30;;;;;;;23.98;4.25;;;10.60;99.90;;;;;;5084854;28;20033;-73
2024/01/02 12:03:40;;;;;;;20.45;3.90;;;10.70;99.90;;;;;;5052424;28;20072;-73
2024/01/02 12:06:15;;;;;;;25.05;4.97;;;10.70;99.90;;;;;;5041220;28;20136;-73
2024/01/02 12:08:49;;;;;;;15.40;3.22;;;10.90;99.90;;;;;;5052011;28;20052;-73
2024/01/02 12:11:17;;;;;;;21.88;4.50;;;10.90;99.90;;;;;;5051962;28;20468;-73
2024/01/02 12:13:56;;;;;;;19.88;4.70;;;10.90;99.90;;;;;;5052142;28;20040;-73
2024/01/02 12:16:22;;;;;;;16.88;3.33;;;10.60;99.90;;;;;;5051781;28;20045;-73
2024/01/02 12:18:50;;;;;;;13.73;3.53;;;10.90;99.90;;;;;;5051786;28;20487;-73
2024/01/02 12:21:21;;;;;;;18.27;4.03;;;10.60;99.90;;;;;;5051941;28;20032;-73
2024/01/02 12:23:49;;;;;;;14.75;3.72;;;10.70;99.90;;;;;;5052122;28;20071;-73
2024/01/02 12:26:21;;;;;;;17.73;4.22;;;10.80;99.90;;;;;;5051771;28;20048;-73
2024/01/02 12:28:48;;;;;;;22.05;4.80;;;10.70;99.90;;;;;;5050563;28;20130;-73
2024/01/02 12:31:48;;;;;;;24.70;4.22;;;10.80;99.90;;;;;;5051547;28;20079;-73
2024/01/02 12:34:19;;;;;;;22.05;4.07;;;10.70;99.90;;;;;;5051902;28;20056;-74
2024/01/02 12:36:47;;;;;;;17.77;4.30;;;10.90;99.90;;;;;;5051562;28;20041;-73
2024/01/02 12:39:19;;;;;;;15.45;4.07;;;10.80;99.90;;;;;;5051604;28;20116;-73
2024/01/02 12:41:51;;;;;;;21.92;3.60;;;10.80;99.90;;;;;;5049055;28;20501;-73
2024/01/02 12:44:18;;;;;;;22.63;4.63;;;10.80;99.90;;;;;;5049553;28;20507;-72
2024/01/02 12:46:56;;;;;;;18.95;3.63;;;10.90;99.90;;;;;;5049364;28;20059;-73
2024/01/02 12:49:29;;;;;;;22.88;4.57;;;10.80;99.90;;;;;;5049018;28;20033;-74
2024/01/02 12:52:05;;;;;;;21.40;3.88;;;10.90;99.90;;;;;;5048703;28;20075;-74
2024/01/02 12:54:34;;;;;;;20.17;5.00;;;10.90;99.90;;;;;;5042499;28;20045;-73
2024/01/02 12:57:04;;;;;;;21.55;4.65;;;11.10;99.90;;;;;;5050669;28;20415;-73
2024/01/02 12:59:35;;;;;;;25.40;4.30;;;10.90;99.90;;;;;;5049679;28;20112;-72